createdAt,value
2023-02-15T00:01:42.034Z,101090.82
2023-02-15T00:04:11.260Z,101089.52
2023-02-15T00:06:40.662Z,101089.24
2023-02-15T00:09:10.987Z,101089.80
2023-02-15T00:11:42.297Z,101093.86
2023-02-15T00:14:23.823Z,101091.84
2023-02-15T00:16:53.590Z,101092.02
2023-02-15T00:19:23.846Z,101088.61
2023-02-15T00:21:53.437Z,101088.60
2023-02-15T00:24:23.140Z,101090.08
2023-02-15T00:26:52.302Z,101087.30
2023-02-15T00:29:24.094Z,101086.07
2023-02-15T00:31:53.371Z,101090.30
2023-02-15T00:34:26.900Z,101089.08
2023-02-15T00:36:57.209Z,101089.88
2023-02-15T00:39:26.880Z,101088.62
2023-02-15T00:41:56.420Z,101090.50
2023-02-15T00:44:27.187Z,101093.33
2023-02-15T00:46:59.228Z,101092.80
2023-02-15T00:49:28.335Z,101092.48
2023-02-15T00:51:57.499Z,101095.18
2023-02-15T00:54:26.584Z,101093.52
2023-02-15T00:56:55.884Z,101096.27
2023-02-15T00:59:29.804Z,101100.52
2023-02-15T01:01:58.968Z,101095.67
2023-02-15T01:04:28.375Z,101099.79
2023-02-15T01:07:04.978Z,101101.70
2023-02-15T01:09:35.673Z,101099.85
2023-02-15T01:12:05.909Z,101098.02
2023-02-15T01:14:36.186Z,101101.61
2023-02-15T01:17:05.540Z,101107.32
2023-02-15T01:19:40.313Z,101108.92
2023-02-15T01:22:09.513Z,101112.29
2023-02-15T01:24:38.713Z,101110.08
2023-02-15T01:27:07.837Z,101108.74
2023-02-15T01:29:36.900Z,101109.86
2023-02-15T01:32:06.634Z,101111.03
2023-02-15T01:34:35.632Z,101108.92
2023-02-15T01:37:05.600Z,101112.23
2023-02-15T01:58:46.818Z,101109.48
2023-02-15T02:02:29.695Z,101114.02
2023-02-15T02:08:24.713Z,101117.37
2023-02-15T02:13:55.349Z,101124.50
2023-02-15T02:17:25.664Z,101125.27
2023-02-15T02:20:35.140Z,101126.41
2023-02-15T02:23:44.047Z,101124.44
2023-02-15T02:30:53.072Z,101123.38
2023-02-15T02:33:40.893Z,101124.73
2023-02-15T02:36:45.465Z,101122.96
2023-02-15T02:40:09.665Z,101125.30
2023-02-15T02:43:23.778Z,101121.59
2023-02-15T02:46:41.170Z,101127.27
2023-02-15T03:09:53.158Z,101147.67
2023-02-15T03:16:52.899Z,101151.55
2023-02-15T03:19:26.078Z,101152.80
2023-02-15T03:46:55.000Z,101158.73
2023-02-15T03:53:48.967Z,101159.44
2023-02-15T04:39:42.533Z,101181.89
2023-02-15T05:08:02.197Z,101204.81
2023-02-15T05:10:53.068Z,101212.39
2023-02-15T05:16:40.755Z,101216.60
2023-02-15T05:23:16.703Z,101224.20
2023-02-15T05:27:06.268Z,101228.01
2023-02-15T05:44:39.370Z,101230.91
2023-02-15T05:50:22.295Z,101238.52
2023-02-15T05:57:48.575Z,101248.16
2023-02-15T06:34:28.449Z,101250.61
2023-02-15T06:37:48.542Z,101254.59
2023-02-15T06:40:42.849Z,101254.71
2023-02-15T06:43:18.908Z,101252.55
2023-02-15T06:46:11.489Z,101248.35
2023-02-15T07:19:49.526Z,101234.93
2023-02-15T08:06:56.572Z,101259.39
2023-02-15T08:09:45.323Z,101258.60
2023-02-15T08:12:14.184Z,101259.33
2023-02-15T08:14:56.601Z,101256.90
2023-02-15T08:20:39.886Z,101256.61
2023-02-15T08:23:13.053Z,101259.60
2023-02-15T08:25:42.766Z,101256.44
2023-02-15T08:39:08.230Z,101266.57
2023-02-15T08:42:02.590Z,101279.09
2023-02-15T10:41:50.385Z,101250.08
2023-02-15T10:44:56.928Z,101251.61
2023-02-15T10:50:59.727Z,101250.81
2023-02-15T10:54:00.428Z,101252.76
2023-02-15T10:56:41.809Z,101246.10
2023-02-15T11:03:26.688Z,101247.55
2023-02-15T11:34:41.546Z,101242.33
2023-02-15T11:47:23.327Z,101244.23
2023-02-15T11:53:06.393Z,101245.22
2023-02-15T11:55:41.073Z,101237.64
2023-02-15T12:38:14.814Z,101218.30
2023-02-15T13:11:33.279Z,101222.91
2023-02-15T13:21:54.774Z,101226.88
2023-02-15T13:25:01.198Z,101226.27
2023-02-15T13:31:15.083Z,101232.34
2023-02-15T14:15:49.845Z,101244.60
2023-02-15T14:18:27.105Z,101248.02
2023-02-15T14:21:20.430Z,101243.52
2023-02-15T14:24:06.583Z,101247.29
2023-02-15T14:26:51.529Z,101243.75
2023-02-15T14:29:45.073Z,101248.66
2023-02-15T14:32:42.136Z,101252.07
2023-02-15T14:35:20.161Z,101250.79
2023-02-15T14:38:11.887Z,101252.27
2023-02-15T14:41:05.389Z,101249.59
2023-02-15T14:43:53.439Z,101254.97
2023-02-15T14:46:29.113Z,101250.85
2023-02-15T14:49:18.523Z,101253.38
2023-02-15T14:51:51.607Z,101252.38
2023-02-15T14:54:23.048Z,101246.98
2023-02-15T14:57:01.807Z,101250.02
2023-02-15T14:59:45.349Z,101256.02
2023-02-15T15:02:15.828Z,101261.78
2023-02-15T15:05:02.580Z,101266.19
2023-02-15T15:08:19.355Z,101266.34
2023-02-15T15:10:48.846Z,101271.36
2023-02-15T15:13:42.222Z,101272.60
2023-02-15T15:16:38.818Z,101275.31
2023-02-15T15:19:11.436Z,101275.02
2023-02-15T15:21:57.311Z,101276.69
2023-02-15T15:24:39.414Z,101277.67
2023-02-15T15:27:48.595Z,101282.26
2023-02-15T15:30:25.308Z,101281.58
2023-02-15T15:32:58.554Z,101281.58
2023-02-15T15:35:54.204Z,101282.36
2023-02-15T15:38:41.688Z,101281.09
2023-02-15T15:41:32.645Z,101283.05
2023-02-15T15:44:25.402Z,101285.55
2023-02-15T15:47:04.042Z,101291.70
2023-02-15T15:49:34.691Z,101291.48
2023-02-15T15:52:16.563Z,101291.73
2023-02-15T15:54:46.033Z,101299.03
2023-02-15T15:57:25.429Z,101296.66
2023-02-15T15:59:57.574Z,101300.55
2023-02-15T16:02:28.160Z,101295.90
2023-02-15T16:05:17.586Z,101300.15
2023-02-15T16:07:47.046Z,101303.52
2023-02-15T16:10:26.065Z,101304.71
2023-02-15T16:12:56.774Z,101307.22
2023-02-15T16:15:35.887Z,101310.54
2023-02-15T16:18:05.690Z,101313.78
2023-02-15T16:20:37.105Z,101312.13
2023-02-15T16:23:33.164Z,101313.71
2023-02-15T16:26:32.670Z,101317.77
2023-02-15T16:29:03.189Z,101320.15
2023-02-15T16:31:39.096Z,101318.54
2023-02-15T16:34:16.399Z,101317.77
2023-02-15T16:36:45.758Z,101319.89
2023-02-15T16:39:21.206Z,101317.64
2023-02-15T16:41:50.596Z,101319.08
2023-02-15T16:44:22.356Z,101314.41
2023-02-15T16:46:53.431Z,101315.52
2023-02-15T16:49:29.852Z,101312.71
2023-02-15T16:52:06.938Z,101314.19
2023-02-15T16:54:36.956Z,101317.31
2023-02-15T16:57:06.678Z,101317.00
2023-02-15T16:59:41.616Z,101319.89
2023-02-15T17:02:43.078Z,101320.89
2023-02-15T17:05:17.736Z,101318.66
2023-02-15T17:08:20.943Z,101316.65
2023-02-15T17:11:14.340Z,101317.19
2023-02-15T17:14:17.314Z,101324.54
2023-02-15T17:16:54.928Z,101321.68
2023-02-15T17:19:31.754Z,101322.61
2023-02-15T17:22:02.843Z,101319.16
2023-02-15T17:24:33.016Z,101319.21
2023-02-15T17:27:05.549Z,101321.11
2023-02-15T17:29:39.688Z,101319.98
2023-02-15T17:32:21.781Z,101321.88
2023-02-15T17:35:01.418Z,101320.30
2023-02-15T17:37:38.996Z,101323.67
2023-02-15T17:40:27.413Z,101325.46
2023-02-15T17:43:00.249Z,101325.69
2023-02-15T17:45:56.835Z,101323.55
2023-02-15T17:48:33.339Z,101320.06
2023-02-15T17:51:06.869Z,101318.33
2023-02-15T17:53:36.349Z,101320.95
2023-02-15T17:56:12.339Z,101320.73
2023-02-15T17:58:42.011Z,101319.80
2023-02-15T18:01:36.968Z,101317.41
2023-02-15T18:04:28.176Z,101320.90
2023-02-15T18:07:17.094Z,101318.88
2023-02-15T18:10:05.914Z,101318.39
2023-02-15T18:12:39.754Z,101320.90
2023-02-15T18:15:14.167Z,101315.23
2023-02-15T18:17:48.303Z,101314.78
2023-02-15T18:20:35.812Z,101317.33
2023-02-15T18:23:06.924Z,101316.67
2023-02-15T18:25:40.161Z,101318.02
2023-02-15T18:28:13.713Z,101316.84
2023-02-15T18:30:45.647Z,101317.52
2023-02-15T18:33:39.240Z,101318.13
2023-02-15T18:36:10.617Z,101318.16
2023-02-15T18:38:44.055Z,101321.08
2023-02-15T18:41:21.796Z,101319.59
2023-02-15T18:43:52.973Z,101321.23
2023-02-15T18:46:22.574Z,101322.44
2023-02-15T18:48:51.874Z,101321.94
2023-02-15T18:51:23.223Z,101322.70
2023-02-15T18:53:53.405Z,101320.56
2023-02-15T18:56:23.779Z,101321.43
2023-02-15T18:58:53.395Z,101321.54
2023-02-15T19:01:39.798Z,101319.89
2023-02-15T19:04:10.746Z,101314.48
2023-02-15T19:06:45.057Z,101316.95
2023-02-15T19:09:20.608Z,101321.30
2023-02-15T19:11:55.338Z,101321.27
2023-02-15T19:14:32.871Z,101323.10
2023-02-15T19:17:02.505Z,101322.51
2023-02-15T19:19:33.472Z,101318.98
2023-02-15T19:22:03.478Z,101324.05
2023-02-15T19:24:37.779Z,101321.15
2023-02-15T19:27:36.122Z,101319.86
2023-02-15T19:30:21.470Z,101320.86
2023-02-15T19:32:54.244Z,101321.62
2023-02-15T19:35:26.788Z,101321.13
2023-02-15T19:37:59.389Z,101320.52
2023-02-15T19:40:33.414Z,101317.14
2023-02-15T19:43:04.582Z,101318.88
2023-02-15T19:45:34.549Z,101319.48
2023-02-15T19:48:06.612Z,101316.93
2023-02-15T19:50:37.129Z,101315.42
2023-02-15T19:53:21.483Z,101316.27
2023-02-15T19:55:52.566Z,101317.19
2023-02-15T19:58:35.554Z,101321.87
2023-02-15T20:01:05.845Z,101322.49
2023-02-15T20:03:37.238Z,101321.55
2023-02-15T20:06:18.866Z,101320.55
2023-02-15T20:09:07.979Z,101317.85
2023-02-15T20:11:43.070Z,101317.10
2023-02-15T20:14:15.705Z,101316.79
2023-02-15T20:16:45.714Z,101320.14
2023-02-15T20:19:23.796Z,101317.48
2023-02-15T20:22:00.634Z,101320.14
2023-02-15T20:24:34.995Z,101321.38
2023-02-15T20:27:23.616Z,101324.85
2023-02-15T20:30:15.910Z,101324.46
2023-02-15T20:32:46.736Z,101319.02
2023-02-15T20:35:20.355Z,101321.08
2023-02-15T20:37:53.237Z,101321.39
2023-02-15T20:40:34.694Z,101318.21
2023-02-15T20:43:09.453Z,101321.39
2023-02-15T20:45:45.906Z,101321.06
2023-02-15T20:48:17.774Z,101317.14
2023-02-15T20:50:49.153Z,101320.42
2023-02-15T20:53:27.234Z,101315.87
2023-02-15T20:55:56.518Z,101317.56
2023-02-15T20:58:31.353Z,101317.67
2023-02-15T21:01:00.950Z,101323.86
2023-02-15T21:03:31.644Z,101319.64
2023-02-15T21:06:00.994Z,101318.48
2023-02-15T21:08:30.539Z,101322.59
2023-02-15T21:11:03.820Z,101316.60
2023-02-15T21:13:36.480Z,101318.70
2023-02-15T21:16:07.170Z,101319.88
2023-02-15T21:18:39.581Z,101316.30
2023-02-15T21:21:17.727Z,101321.45
2023-02-15T21:23:47.450Z,101318.84
2023-02-15T21:26:21.847Z,101319.58
2023-02-15T21:28:52.821Z,101319.89
2023-02-15T21:31:24.647Z,101319.20
2023-02-15T21:33:54.212Z,101319.24
2023-02-15T21:36:28.438Z,101318.84
2023-02-15T21:38:58.066Z,101318.29
2023-02-15T21:41:46.970Z,101319.39
2023-02-15T21:44:42.711Z,101320.55
2023-02-15T21:47:46.242Z,101320.44
2023-02-15T21:50:40.909Z,101319.93
2023-02-15T21:53:17.541Z,101320.03
2023-02-15T21:55:47.610Z,101321.55
2023-02-15T21:58:20.707Z,101323.70
2023-02-15T22:00:50.806Z,101324.12
2023-02-15T22:03:21.351Z,101322.98
2023-02-15T22:05:50.549Z,101325.00
2023-02-15T22:08:20.565Z,101325.78
2023-02-15T22:10:54.004Z,101320.71
2023-02-15T22:13:30.032Z,101324.27
2023-02-15T22:16:00.785Z,101320.26
2023-02-15T22:18:34.458Z,101322.77
2023-02-15T22:21:05.166Z,101325.21
2023-02-15T22:23:36.355Z,101321.70
2023-02-15T22:26:14.394Z,101321.42
2023-02-15T22:28:44.152Z,101320.24
2023-02-15T22:31:15.836Z,101320.70
2023-02-15T22:33:45.454Z,101324.42
2023-02-15T22:36:27.932Z,101321.05
2023-02-15T22:38:58.687Z,101318.53
2023-02-15T22:41:29.842Z,101319.25
2023-02-15T22:43:59.297Z,101320.13
2023-02-15T22:46:28.927Z,101322.70
2023-02-15T22:48:58.406Z,101327.59
2023-02-15T22:51:27.437Z,101327.23
2023-02-15T22:53:58.643Z,101327.02
2023-02-15T22:57:04.512Z,101324.94
2023-02-15T22:59:37.287Z,101326.65
2023-02-15T23:02:10.502Z,101328.38
2023-02-15T23:04:39.589Z,101328.08
2023-02-15T23:07:16.543Z,101323.17
2023-02-15T23:09:47.552Z,101324.14
2023-02-15T23:12:53.891Z,101326.67
2023-02-15T23:15:36.984Z,101325.70
2023-02-15T23:18:30.041Z,101321.61
2023-02-15T23:21:02.993Z,101323.64
2023-02-15T23:23:32.040Z,101320.33
2023-02-15T23:26:04.242Z,101317.77
2023-02-15T23:28:37.187Z,101321.14
2023-02-15T23:31:19.767Z,101318.70
2023-02-15T23:33:49.222Z,101319.60
2023-02-15T23:36:35.452Z,101321.13
2023-02-15T23:39:37.979Z,101319.02
2023-02-15T23:42:22.243Z,101323.08
2023-02-15T23:44:54.486Z,101323.97
2023-02-15T23:47:50.657Z,101316.95
2023-02-15T23:50:21.067Z,101318.31
2023-02-15T23:52:52.306Z,101320.48
2023-02-15T23:55:23.200Z,101325.52
2023-02-15T23:57:54.369Z,101328.90
